sensor_id;sensor_type;location;lat;lon;timestamp;temperature;humidity
4584;DHT22;2304;47.606;12.186;2022-07-29T00:02:20;19.90;83.00
4584;DHT22;2304;47.606;12.186;2022-07-29T00:07:22;19.80;83.30
4584;DHT22;2304;47.606;12.186;2022-07-29T00:12:24;19.80;84.30
4584;DHT22;2304;47.606;12.186;2022-07-29T00:17:28;19.80;85.10
4584;DHT22;2304;47.606;12.186;2022-07-29T00:22:29;19.70;83.80
4584;DHT22;2304;47.606;12.186;2022-07-29T00:27:31;19.70;83.00
4584;DHT22;2304;47.606;12.186;2022-07-29T00:32:35;19.70;82.20
4584;DHT22;2304;47.606;12.186;2022-07-29T00:37:36;19.60;82.60
4584;DHT22;2304;47.606;12.186;2022-07-29T00:42:42;19.70;82.50
4584;DHT22;2304;47.606;12.186;2022-07-29T00:47:45;19.70;81.40
4584;DHT22;2304;47.606;12.186;2022-07-29T00:52:47;19.70;80.20
4584;DHT22;2304;47.606;12.186;2022-07-29T00:57:49;19.70;79.60
4584;DHT22;2304;47.606;12.186;2022-07-29T01:02:53;19.80;79.60
4584;DHT22;2304;47.606;12.186;2022-07-29T01:07:57;19.90;78.90
4584;DHT22;2304;47.606;12.186;2022-07-29T01:13:01;19.90;78.40
4584;DHT22;2304;47.606;12.186;2022-07-29T01:18:20;19.90;78.80
4584;DHT22;2304;47.606;12.186;2022-07-29T01:29:06;19.90;81.00
4584;DHT22;2304;47.606;12.186;2022-07-29T01:34:11;19.80;80.70
4584;DHT22;2304;47.606;12.186;2022-07-29T01:39:19;19.80;81.40
4584;DHT22;2304;47.606;12.186;2022-07-29T01:44:30;19.80;81.00
4584;DHT22;2304;47.606;12.186;2022-07-29T01:49:36;19.70;81.00
4584;DHT22;2304;47.606;12.186;2022-07-29T01:54:43;19.80;80.70
4584;DHT22;2304;47.606;12.186;2022-07-29T01:59:48;19.70;80.90
4584;DHT22;2304;47.606;12.186;2022-07-29T02:04:53;19.70;80.80
4584;DHT22;2304;47.606;12.186;2022-07-29T02:09:57;19.80;80.20
4584;DHT22;2304;47.606;12.186;2022-07-29T02:15:03;19.70;80.60
4584;DHT22;2304;47.606;12.186;2022-07-29T02:20:07;19.70;80.60
4584;DHT22;2304;47.606;12.186;2022-07-29T02:25:10;19.80;79.90
4584;DHT22;2304;47.606;12.186;2022-07-29T02:30:14;19.70;79.50
4584;DHT22;2304;47.606;12.186;2022-07-29T02:35:17;19.70;79.60
4584;DHT22;2304;47.606;12.186;2022-07-29T02:40:19;19.50;80.60
4584;DHT22;2304;47.606;12.186;2022-07-29T02:45:23;19.40;82.00
4584;DHT22;2304;47.606;12.186;2022-07-29T02:50:31;19.30;82.80
4584;DHT22;2304;47.606;12.186;2022-07-29T02:55:37;19.30;83.20
4584;DHT22;2304;47.606;12.186;2022-07-29T03:00:44;19.20;82.50
4584;DHT22;2304;47.606;12.186;2022-07-29T03:05:48;19.20;82.50
4584;DHT22;2304;47.606;12.186;2022-07-29T03:10:51;19.20;82.60
4584;DHT22;2304;47.606;12.186;2022-07-29T03:15:55;19.20;83.20
4584;DHT22;2304;47.606;12.186;2022-07-29T03:20:58;19.30;83.90
4584;DHT22;2304;47.606;12.186;2022-07-29T03:26:00;19.10;84.20
4584;DHT22;2304;47.606;12.186;2022-07-29T03:31:03;19.00;84.00
4584;DHT22;2304;47.606;12.186;2022-07-29T03:36:05;19.10;84.70
4584;DHT22;2304;47.606;12.186;2022-07-29T03:41:10;19.00;85.50
4584;DHT22;2304;47.606;12.186;2022-07-29T03:46:16;19.20;85.90
4584;DHT22;2304;47.606;12.186;2022-07-29T03:51:19;18.80;86.50
4584;DHT22;2304;47.606;12.186;2022-07-29T03:56:22;18.80;87.40
4584;DHT22;2304;47.606;12.186;2022-07-29T04:01:27;18.80;86.60
4584;DHT22;2304;47.606;12.186;2022-07-29T04:06:37;18.80;86.50
4584;DHT22;2304;47.606;12.186;2022-07-29T04:11:40;18.70;86.60
4584;DHT22;2304;47.606;12.186;2022-07-29T04:16:43;18.90;87.10
4584;DHT22;2304;47.606;12.186;2022-07-29T04:21:45;18.70;87.40
4584;DHT22;2304;47.606;12.186;2022-07-29T04:26:47;18.80;86.60
4584;DHT22;2304;47.606;12.186;2022-07-29T04:31:51;18.90;85.80
4584;DHT22;2304;47.606;12.186;2022-07-29T04:36:52;18.90;85.50
4584;DHT22;2304;47.606;12.186;2022-07-29T04:41:54;18.90;85.90
4584;DHT22;2304;47.606;12.186;2022-07-29T04:46:58;18.80;85.90
4584;DHT22;2304;47.606;12.186;2022-07-29T04:51:59;18.70;86.20
4584;DHT22;2304;47.606;12.186;2022-07-29T04:57:01;18.80;86.20
4584;DHT22;2304;47.606;12.186;2022-07-29T05:02:05;18.70;86.10
4584;DHT22;2304;47.606;12.186;2022-07-29T05:07:06;18.80;85.30
4584;DHT22;2304;47.606;12.186;2022-07-29T05:12:08;18.90;84.70
4584;DHT22;2304;47.606;12.186;2022-07-29T05:17:12;18.90;83.70
4584;DHT22;2304;47.606;12.186;2022-07-29T05:22:14;19.00;81.70
4584;DHT22;2304;47.606;12.186;2022-07-29T05:27:16;19.10;80.20
4584;DHT22;2304;47.606;12.186;2022-07-29T05:32:19;19.20;80.10
4584;DHT22;2304;47.606;12.186;2022-07-29T05:37:21;19.30;80.10
4584;DHT22;2304;47.606;12.186;2022-07-29T05:42:23;19.30;78.90
4584;DHT22;2304;47.606;12.186;2022-07-29T05:47:27;19.40;78.10
4584;DHT22;2304;47.606;12.186;2022-07-29T05:52:29;19.50;78.40
4584;DHT22;2304;47.606;12.186;2022-07-29T05:57:31;19.60;77.20
4584;DHT22;2304;47.606;12.186;2022-07-29T06:02:34;19.60;76.10
4584;DHT22;2304;47.606;12.186;2022-07-29T06:07:36;19.70;76.10
4584;DHT22;2304;47.606;12.186;2022-07-29T06:12:38;19.80;75.60
4584;DHT22;2304;47.606;12.186;2022-07-29T06:17:41;19.80;75.40
4584;DHT22;2304;47.606;12.186;2022-07-29T06:22:43;19.80;75.40
4584;DHT22;2304;47.606;12.186;2022-07-29T06:27:45;20.10;74.80
4584;DHT22;2304;47.606;12.186;2022-07-29T06:32:48;20.40;72.80
4584;DHT22;2304;47.606;12.186;2022-07-29T06:37:50;20.60;71.60
4584;DHT22;2304;47.606;12.186;2022-07-29T06:42:52;20.70;70.40
4584;DHT22;2304;47.606;12.186;2022-07-29T06:47:55;20.80;69.70
4584;DHT22;2304;47.606;12.186;2022-07-29T06:52:57;20.60;69.40
4584;DHT22;2304;47.606;12.186;2022-07-29T06:57:59;20.40;69.50
4584;DHT22;2304;47.606;12.186;2022-07-29T07:03:02;20.30;70.00
4584;DHT22;2304;47.606;12.186;2022-07-29T07:08:05;20.40;69.40
4584;DHT22;2304;47.606;12.186;2022-07-29T07:13:07;20.90;68.80
4584;DHT22;2304;47.606;12.186;2022-07-29T07:18:10;21.30;67.40
4584;DHT22;2304;47.606;12.186;2022-07-29T07:23:12;21.60;65.60
4584;DHT22;2304;47.606;12.186;2022-07-29T07:28:14;21.90;65.50
4584;DHT22;2304;47.606;12.186;2022-07-29T07:33:17;22.10;64.40
4584;DHT22;2304;47.606;12.186;2022-07-29T07:38:19;22.40;65.00
4584;DHT22;2304;47.606;12.186;2022-07-29T07:43:21;22.70;64.70
4584;DHT22;2304;47.606;12.186;2022-07-29T07:48:24;22.80;63.00
4584;DHT22;2304;47.606;12.186;2022-07-29T07:53:26;22.90;61.30
4584;DHT22;2304;47.606;12.186;2022-07-29T07:58:30;23.20;61.00
4584;DHT22;2304;47.606;12.186;2022-07-29T08:03:33;23.30;58.30
4584;DHT22;2304;47.606;12.186;2022-07-29T08:08:35;23.60;59.60
4584;DHT22;2304;47.606;12.186;2022-07-29T08:13:38;23.80;59.70
4584;DHT22;2304;47.606;12.186;2022-07-29T08:18:42;24.00;58.40
4584;DHT22;2304;47.606;12.186;2022-07-29T08:23:45;24.00;58.00
4584;DHT22;2304;47.606;12.186;2022-07-29T08:28:49;24.10;57.20
4584;DHT22;2304;47.606;12.186;2022-07-29T08:33:52;24.00;56.30
4584;DHT22;2304;47.606;12.186;2022-07-29T08:38:56;24.10;55.80
4584;DHT22;2304;47.606;12.186;2022-07-29T08:43:58;24.40;55.10
4584;DHT22;2304;47.606;12.186;2022-07-29T08:49:02;24.60;55.60
4584;DHT22;2304;47.606;12.186;2022-07-29T08:54:04;24.60;54.20
4584;DHT22;2304;47.606;12.186;2022-07-29T08:59:08;24.60;54.00
4584;DHT22;2304;47.606;12.186;2022-07-29T09:04:12;24.90;53.40
4584;DHT22;2304;47.606;12.186;2022-07-29T09:09:14;25.30;52.50
4584;DHT22;2304;47.606;12.186;2022-07-29T09:14:16;25.60;55.20
4584;DHT22;2304;47.606;12.186;2022-07-29T09:19:25;25.70;53.20
4584;DHT22;2304;47.606;12.186;2022-07-29T09:24:37;25.80;54.00
4584;DHT22;2304;47.606;12.186;2022-07-29T09:29:39;25.70;54.50
4584;DHT22;2304;47.606;12.186;2022-07-29T09:34:42;25.80;55.60
4584;DHT22;2304;47.606;12.186;2022-07-29T09:39:44;26.20;56.10
4584;DHT22;2304;47.606;12.186;2022-07-29T09:44:48;26.50;55.10
4584;DHT22;2304;47.606;12.186;2022-07-29T09:49:53;26.60;53.70
4584;DHT22;2304;47.606;12.186;2022-07-29T09:55:05;26.70;52.30
4584;DHT22;2304;47.606;12.186;2022-07-29T10:00:08;27.00;53.80
4584;DHT22;2304;47.606;12.186;2022-07-29T10:05:19;26.80;53.40
4584;DHT22;2304;47.606;12.186;2022-07-29T10:10:23;26.90;53.30
4584;DHT22;2304;47.606;12.186;2022-07-29T10:15:28;27.40;54.40
4584;DHT22;2304;47.606;12.186;2022-07-29T10:20:34;27.70;53.20
4584;DHT22;2304;47.606;12.186;2022-07-29T10:25:36;28.10;53.40
4584;DHT22;2304;47.606;12.186;2022-07-29T10:30:39;28.30;51.80
4584;DHT22;2304;47.606;12.186;2022-07-29T10:41:22;28.40;48.20
4584;DHT22;2304;47.606;12.186;2022-07-29T10:46:34;28.50;48.50
4584;DHT22;2304;47.606;12.186;2022-07-29T10:52:02;28.80;49.90
4584;DHT22;2304;47.606;12.186;2022-07-29T10:57:27;29.10;47.80
4584;DHT22;2304;47.606;12.186;2022-07-29T11:02:46;29.40;49.90
4584;DHT22;2304;47.606;12.186;2022-07-29T11:08:19;29.70;46.60
4584;DHT22;2304;47.606;12.186;2022-07-29T11:13:45;29.70;45.60
4584;DHT22;2304;47.606;12.186;2022-07-29T11:19:18;29.80;48.30
4584;DHT22;2304;47.606;12.186;2022-07-29T11:24:23;30.00;47.40
4584;DHT22;2304;47.606;12.186;2022-07-29T11:29:28;30.20;48.60
4584;DHT22;2304;47.606;12.186;2022-07-29T11:34:31;30.00;46.80
4584;DHT22;2304;47.606;12.186;2022-07-29T11:39:35;29.60;46.20
4584;DHT22;2304;47.606;12.186;2022-07-29T11:44:55;30.00;46.50
4584;DHT22;2304;47.606;12.186;2022-07-29T11:50:01;30.40;44.10
4584;DHT22;2304;47.606;12.186;2022-07-29T11:55:06;30.20;43.10
4584;DHT22;2304;47.606;12.186;2022-07-29T12:00:09;29.80;45.20
4584;DHT22;2304;47.606;12.186;2022-07-29T12:05:12;30.00;44.60
4584;DHT22;2304;47.606;12.186;2022-07-29T12:10:16;30.10;44.50
4584;DHT22;2304;47.606;12.186;2022-07-29T12:15:18;30.00;45.90
4584;DHT22;2304;47.606;12.186;2022-07-29T12:20:26;30.10;45.50
4584;DHT22;2304;47.606;12.186;2022-07-29T12:25:33;30.30;45.50
4584;DHT22;2304;47.606;12.186;2022-07-29T12:30:41;30.30;45.30
4584;DHT22;2304;47.606;12.186;2022-07-29T12:35:46;30.70;45.40
4584;DHT22;2304;47.606;12.186;2022-07-29T12:40:52;30.40;43.70
4584;DHT22;2304;47.606;12.186;2022-07-29T12:45:55;30.00;43.00
4584;DHT22;2304;47.606;12.186;2022-07-29T12:50:59;30.20;44.90
4584;DHT22;2304;47.606;12.186;2022-07-29T12:56:04;30.60;44.10
4584;DHT22;2304;47.606;12.186;2022-07-29T13:01:09;30.80;42.90
4584;DHT22;2304;47.606;12.186;2022-07-29T13:06:37;31.10;42.70
4584;DHT22;2304;47.606;12.186;2022-07-29T13:11:42;31.30;43.30
4584;DHT22;2304;47.606;12.186;2022-07-29T13:17:02;31.30;41.30
4584;DHT22;2304;47.606;12.186;2022-07-29T13:22:05;31.40;41.50
4584;DHT22;2304;47.606;12.186;2022-07-29T13:27:08;31.40;42.20
4584;DHT22;2304;47.606;12.186;2022-07-29T13:32:11;31.60;41.90
4584;DHT22;2304;47.606;12.186;2022-07-29T13:37:13;31.60;41.90
4584;DHT22;2304;47.606;12.186;2022-07-29T13:42:16;31.60;41.90
4584;DHT22;2304;47.606;12.186;2022-07-29T13:47:19;31.60;40.90
4584;DHT22;2304;47.606;12.186;2022-07-29T13:52:21;31.70;40.70
4584;DHT22;2304;47.606;12.186;2022-07-29T13:57:24;31.70;41.30
4584;DHT22;2304;47.606;12.186;2022-07-29T14:02:26;31.20;41.70
4584;DHT22;2304;47.606;12.186;2022-07-29T14:07:28;30.70;41.40
4584;DHT22;2304;47.606;12.186;2022-07-29T14:12:31;30.30;41.70
4584;DHT22;2304;47.606;12.186;2022-07-29T14:17:33;30.00;42.60
4584;DHT22;2304;47.606;12.186;2022-07-29T14:22:35;29.70;42.70
4584;DHT22;2304;47.606;12.186;2022-07-29T14:27:38;29.50;43.10
4584;DHT22;2304;47.606;12.186;2022-07-29T14:32:41;29.30;43.80
4584;DHT22;2304;47.606;12.186;2022-07-29T14:37:42;29.20;44.00
4584;DHT22;2304;47.606;12.186;2022-07-29T14:42:46;29.10;44.20
4584;DHT22;2304;47.606;12.186;2022-07-29T14:47:48;29.10;44.30
4584;DHT22;2304;47.606;12.186;2022-07-29T14:52:51;29.10;44.50
4584;DHT22;2304;47.606;12.186;2022-07-29T14:57:54;28.90;45.20
4584;DHT22;2304;47.606;12.186;2022-07-29T15:02:56;28.90;45.70
4584;DHT22;2304;47.606;12.186;2022-07-29T15:07:58;28.90;46.60
4584;DHT22;2304;47.606;12.186;2022-07-29T15:13:02;29.10;44.60
4584;DHT22;2304;47.606;12.186;2022-07-29T15:18:04;29.10;44.50
4584;DHT22;2304;47.606;12.186;2022-07-29T15:23:05;29.10;45.10
4584;DHT22;2304;47.606;12.186;2022-07-29T15:28:11;28.90;45.10
4584;DHT22;2304;47.606;12.186;2022-07-29T15:33:13;28.80;45.40
4584;DHT22;2304;47.606;12.186;2022-07-29T15:38:16;28.50;45.70
4584;DHT22;2304;47.606;12.186;2022-07-29T15:43:19;28.30;45.40
4584;DHT22;2304;47.606;12.186;2022-07-29T15:48:21;28.20;45.60
4584;DHT22;2304;47.606;12.186;2022-07-29T15:53:23;28.10;46.40
4584;DHT22;2304;47.606;12.186;2022-07-29T15:58:26;28.00;46.60
4584;DHT22;2304;47.606;12.186;2022-07-29T16:03:28;27.90;47.00
4584;DHT22;2304;47.606;12.186;2022-07-29T16:08:30;27.70;47.10
4584;DHT22;2304;47.606;12.186;2022-07-29T16:13:33;27.60;47.30
4584;DHT22;2304;47.606;12.186;2022-07-29T16:18:35;27.50;48.10
4584;DHT22;2304;47.606;12.186;2022-07-29T16:23:37;27.40;47.00
4584;DHT22;2304;47.606;12.186;2022-07-29T16:28:41;27.30;47.60
4584;DHT22;2304;47.606;12.186;2022-07-29T16:33:43;27.10;48.90
4584;DHT22;2304;47.606;12.186;2022-07-29T16:38:45;26.80;49.10
4584;DHT22;2304;47.606;12.186;2022-07-29T16:43:48;26.50;52.20
4584;DHT22;2304;47.606;12.186;2022-07-29T16:48:50;26.10;52.00
4584;DHT22;2304;47.606;12.186;2022-07-29T16:53:52;25.90;53.60
4584;DHT22;2304;47.606;12.186;2022-07-29T16:58:56;25.40;59.10
4584;DHT22;2304;47.606;12.186;2022-07-29T17:03:58;24.80;59.30
4584;DHT22;2304;47.606;12.186;2022-07-29T17:09:08;24.30;61.10
4584;DHT22;2304;47.606;12.186;2022-07-29T17:14:11;24.20;62.40
4584;DHT22;2304;47.606;12.186;2022-07-29T17:19:13;24.10;63.10
4584;DHT22;2304;47.606;12.186;2022-07-29T17:24:15;23.70;64.80
4584;DHT22;2304;47.606;12.186;2022-07-29T17:29:18;23.60;67.00
4584;DHT22;2304;47.606;12.186;2022-07-29T17:34:20;23.50;67.10
4584;DHT22;2304;47.606;12.186;2022-07-29T17:39:22;23.50;68.30
4584;DHT22;2304;47.606;12.186;2022-07-29T17:44:25;23.50;68.30
4584;DHT22;2304;47.606;12.186;2022-07-29T17:49:27;23.50;69.10
4584;DHT22;2304;47.606;12.186;2022-07-29T17:54:29;23.50;68.80
4584;DHT22;2304;47.606;12.186;2022-07-29T17:59:33;23.40;68.90
4584;DHT22;2304;47.606;12.186;2022-07-29T18:04:34;23.40;69.40
4584;DHT22;2304;47.606;12.186;2022-07-29T18:09:36;23.20;69.70
4584;DHT22;2304;47.606;12.186;2022-07-29T18:14:39;23.10;69.40
4584;DHT22;2304;47.606;12.186;2022-07-29T18:19:41;22.90;70.10
4584;DHT22;2304;47.606;12.186;2022-07-29T18:24:43;22.70;70.10
4584;DHT22;2304;47.606;12.186;2022-07-29T18:29:46;22.50;71.80
4584;DHT22;2304;47.606;12.186;2022-07-29T18:34:49;22.40;72.80
4584;DHT22;2304;47.606;12.186;2022-07-29T18:39:51;22.40;72.40
4584;DHT22;2304;47.606;12.186;2022-07-29T18:44:54;22.50;72.80
4584;DHT22;2304;47.606;12.186;2022-07-29T18:49:56;22.50;73.40
4584;DHT22;2304;47.606;12.186;2022-07-29T18:54:59;22.50;72.90
4584;DHT22;2304;47.606;12.186;2022-07-29T19:00:04;22.50;73.60
4584;DHT22;2304;47.606;12.186;2022-07-29T19:05:08;22.40;73.30
4584;DHT22;2304;47.606;12.186;2022-07-29T19:10:10;22.30;73.30
4584;DHT22;2304;47.606;12.186;2022-07-29T19:15:14;22.30;73.80
4584;DHT22;2304;47.606;12.186;2022-07-29T19:20:16;22.30;73.10
4584;DHT22;2304;47.606;12.186;2022-07-29T19:25:18;22.30;73.90
4584;DHT22;2304;47.606;12.186;2022-07-29T19:30:21;22.20;74.10
4584;DHT22;2304;47.606;12.186;2022-07-29T19:35:23;22.20;74.10
4584;DHT22;2304;47.606;12.186;2022-07-29T19:40:28;22.10;75.10
4584;DHT22;2304;47.606;12.186;2022-07-29T19:45:31;22.10;74.80
4584;DHT22;2304;47.606;12.186;2022-07-29T19:50:33;22.00;74.90
4584;DHT22;2304;47.606;12.186;2022-07-29T19:55:35;21.90;74.80
4584;DHT22;2304;47.606;12.186;2022-07-29T20:00:38;21.90;75.30
4584;DHT22;2304;47.606;12.186;2022-07-29T20:05:40;21.80;74.90
4584;DHT22;2304;47.606;12.186;2022-07-29T20:10:43;21.80;75.20
4584;DHT22;2304;47.606;12.186;2022-07-29T20:15:46;21.90;76.50
4584;DHT22;2304;47.606;12.186;2022-07-29T20:20:48;21.90;77.00
4584;DHT22;2304;47.606;12.186;2022-07-29T20:25:50;21.90;77.60
4584;DHT22;2304;47.606;12.186;2022-07-29T20:30:53;21.80;77.50
4584;DHT22;2304;47.606;12.186;2022-07-29T20:35:55;21.90;77.30
4584;DHT22;2304;47.606;12.186;2022-07-29T20:40:57;21.90;76.90
4584;DHT22;2304;47.606;12.186;2022-07-29T20:46:00;21.80;76.60
4584;DHT22;2304;47.606;12.186;2022-07-29T20:51:02;21.70;77.20
4584;DHT22;2304;47.606;12.186;2022-07-29T20:56:04;21.60;78.00
4584;DHT22;2304;47.606;12.186;2022-07-29T21:01:08;21.50;78.90
4584;DHT22;2304;47.606;12.186;2022-07-29T21:06:10;21.50;78.60
4584;DHT22;2304;47.606;12.186;2022-07-29T21:11:14;21.50;78.90
4584;DHT22;2304;47.606;12.186;2022-07-29T21:16:18;21.40;78.50
4584;DHT22;2304;47.606;12.186;2022-07-29T21:21:20;21.30;78.80
4584;DHT22;2304;47.606;12.186;2022-07-29T21:26:22;21.30;79.40
4584;DHT22;2304;47.606;12.186;2022-07-29T21:31:25;21.30;80.00
4584;DHT22;2304;47.606;12.186;2022-07-29T21:36:27;21.30;79.10
4584;DHT22;2304;47.606;12.186;2022-07-29T21:41:29;21.30;79.00
4584;DHT22;2304;47.606;12.186;2022-07-29T21:46:32;21.20;79.00
4584;DHT22;2304;47.606;12.186;2022-07-29T21:51:35;21.10;78.80
4584;DHT22;2304;47.606;12.186;2022-07-29T21:56:37;21.10;79.10
4584;DHT22;2304;47.606;12.186;2022-07-29T22:01:40;21.10;79.20
4584;DHT22;2304;47.606;12.186;2022-07-29T22:06:42;21.10;79.80
4584;DHT22;2304;47.606;12.186;2022-07-29T22:11:44;21.10;80.20
4584;DHT22;2304;47.606;12.186;2022-07-29T22:16:48;21.10;79.10
4584;DHT22;2304;47.606;12.186;2022-07-29T22:21:50;21.10;79.10
4584;DHT22;2304;47.606;12.186;2022-07-29T22:26:52;21.00;80.40
4584;DHT22;2304;47.606;12.186;2022-07-29T22:31:55;21.20;80.50
4584;DHT22;2304;47.606;12.186;2022-07-29T22:36:58;21.00;80.50
4584;DHT22;2304;47.606;12.186;2022-07-29T22:42:00;21.00;81.00
4584;DHT22;2304;47.606;12.186;2022-07-29T22:47:04;21.00;80.50
4584;DHT22;2304;47.606;12.186;2022-07-29T22:52:06;20.90;81.40
4584;DHT22;2304;47.606;12.186;2022-07-29T22:57:08;21.00;80.90
4584;DHT22;2304;47.606;12.186;2022-07-29T23:02:11;21.00;81.40
4584;DHT22;2304;47.606;12.186;2022-07-29T23:07:13;21.00;81.40
4584;DHT22;2304;47.606;12.186;2022-07-29T23:12:15;20.90;81.90
4584;DHT22;2304;47.606;12.186;2022-07-29T23:17:18;20.90;81.80
4584;DHT22;2304;47.606;12.186;2022-07-29T23:22:20;20.90;81.20
4584;DHT22;2304;47.606;12.186;2022-07-29T23:27:22;20.90;81.20
4584;DHT22;2304;47.606;12.186;2022-07-29T23:32:25;20.80;81.70
4584;DHT22;2304;47.606;12.186;2022-07-29T23:37:27;20.80;81.50
4584;DHT22;2304;47.606;12.186;2022-07-29T23:42:29;20.70;80.90
4584;DHT22;2304;47.606;12.186;2022-07-29T23:47:32;20.70;80.60
4584;DHT22;2304;47.606;12.186;2022-07-29T23:52:34;20.70;80.80
4584;DHT22;2304;47.606;12.186;2022-07-29T23:57:36;20.70;80.10
